createdAt,value
2018-09-13T00:01:15.974Z,6.17
2018-09-13T00:03:44.777Z,5.87
2018-09-13T00:06:15.320Z,5.83
2018-09-13T00:08:44.929Z,6.97
2018-09-13T00:11:13.903Z,6.77
2018-09-13T00:13:42.563Z,6.53
2018-09-13T00:16:11.261Z,7.40
2018-09-13T00:18:40.257Z,6.50
2018-09-13T00:21:09.009Z,7.90
2018-09-13T00:23:38.038Z,8.30
2018-09-13T00:26:07.329Z,9.03
2018-09-13T00:28:36.562Z,8.87
2018-09-13T00:31:05.381Z,9.03
2018-09-13T00:33:34.109Z,8.40
2018-09-13T00:36:03.049Z,7.17
2018-09-13T00:38:31.705Z,7.53
2018-09-13T00:41:00.341Z,7.63
2018-09-13T00:43:29.090Z,8.20
2018-09-13T00:45:58.117Z,7.97
2018-09-13T00:48:26.916Z,7.43
2018-09-13T00:50:55.641Z,7.43
2018-09-13T00:53:24.292Z,8.07
2018-09-13T00:55:53.058Z,7.00
2018-09-13T00:58:21.695Z,8.10
2018-09-13T01:00:50.694Z,7.40
2018-09-13T01:03:19.382Z,8.07
2018-09-13T01:05:48.193Z,7.07
2018-09-13T01:08:17.213Z,7.03
2018-09-13T01:10:45.855Z,7.67
2018-09-13T01:13:14.787Z,7.63
2018-09-13T01:15:43.405Z,9.07
2018-09-13T01:18:12.097Z,8.67
2018-09-13T01:20:41.158Z,8.50
2018-09-13T01:23:09.894Z,7.50
2018-09-13T01:25:38.586Z,7.83
2018-09-13T01:28:07.389Z,8.10
2018-09-13T01:30:36.960Z,6.87
2018-09-13T01:33:06.232Z,7.43
2018-09-13T01:35:35.793Z,6.93
2018-09-13T01:38:04.510Z,7.07
2018-09-13T01:40:33.171Z,8.07
2018-09-13T01:43:01.842Z,7.73
2018-09-13T01:45:30.563Z,8.13
2018-09-13T01:47:59.509Z,7.53
2018-09-13T01:50:28.921Z,7.47
2018-09-13T01:52:58.392Z,8.03
2018-09-13T01:55:27.825Z,6.63
2018-09-13T01:57:56.634Z,6.33
2018-09-13T02:00:25.451Z,7.30
2018-09-13T02:02:54.130Z,6.20
2018-09-13T02:05:23.376Z,8.30
2018-09-13T02:07:52.531Z,6.80
2018-09-13T02:10:22.126Z,8.20
2018-09-13T02:12:51.553Z,8.77
2018-09-13T02:15:20.809Z,7.23
2018-09-13T02:17:49.974Z,7.83
2018-09-13T02:20:19.574Z,6.40
2018-09-13T02:22:48.905Z,7.57
2018-09-13T02:25:18.499Z,8.17
2018-09-13T02:27:47.223Z,7.90
2018-09-13T02:30:15.894Z,7.87
2018-09-13T02:32:44.623Z,7.60
2018-09-13T02:35:13.530Z,8.20
2018-09-13T02:37:42.190Z,7.77
2018-09-13T02:40:10.954Z,7.67
2018-09-13T02:42:39.860Z,7.53
2018-09-13T02:45:08.915Z,8.17
2018-09-13T02:47:37.609Z,8.20
2018-09-13T02:50:06.309Z,8.30
2018-09-13T02:52:35.336Z,8.80
2018-09-13T02:55:04.159Z,8.77
2018-09-13T02:57:32.909Z,9.70
2018-09-13T03:00:02.138Z,9.13
2018-09-13T03:02:30.785Z,8.70
2018-09-13T03:04:59.437Z,9.43
2018-09-13T03:07:28.185Z,9.40
2018-09-13T03:09:57.014Z,8.67
2018-09-13T03:12:25.772Z,8.77
2018-09-13T03:14:54.554Z,8.73
2018-09-13T03:17:23.281Z,8.43
2018-09-13T03:19:51.959Z,8.73
2018-09-13T03:22:20.611Z,8.13
2018-09-13T03:24:49.526Z,8.53
2018-09-13T03:27:18.374Z,8.03
2018-09-13T03:29:47.146Z,8.40
2018-09-13T03:32:15.814Z,7.57
2018-09-13T03:34:44.450Z,7.10
2018-09-13T03:37:13.313Z,7.60
2018-09-13T03:39:42.110Z,7.30
2018-09-13T03:42:10.810Z,6.53
2018-09-13T03:44:39.428Z,7.80
2018-09-13T03:47:08.061Z,7.73
2018-09-13T03:49:36.783Z,7.37
2018-09-13T03:52:05.702Z,7.50
2018-09-13T03:54:34.488Z,8.20
2018-09-13T03:57:03.290Z,7.80
2018-09-13T03:59:32.081Z,6.10
2018-09-13T04:02:00.854Z,8.13
2018-09-13T04:04:29.521Z,7.50
2018-09-13T04:06:58.748Z,6.63
2018-09-13T04:09:28.121Z,7.50
2018-09-13T04:11:57.365Z,7.67
2018-09-13T04:14:26.749Z,6.60
2018-09-13T04:16:56.505Z,7.07
2018-09-13T04:19:30.759Z,6.50
2018-09-13T04:21:59.769Z,7.30
2018-09-13T04:24:29.191Z,6.87
2018-09-13T04:26:57.937Z,6.90
2018-09-13T04:29:26.773Z,7.50
2018-09-13T04:31:56.612Z,7.30
2018-09-13T04:34:26.420Z,6.87
2018-09-13T04:36:56.043Z,6.40
2018-09-13T04:39:25.276Z,7.77
2018-09-13T04:41:55.061Z,7.30
2018-09-13T04:44:24.095Z,7.00
2018-09-13T04:46:52.853Z,7.87
2018-09-13T04:49:21.885Z,7.30
2018-09-13T04:51:50.949Z,9.20
2018-09-13T04:54:19.615Z,8.23
2018-09-13T04:56:48.805Z,9.90
2018-09-13T04:59:17.493Z,8.10
2018-09-13T05:01:46.542Z,9.00
2018-09-13T05:04:15.437Z,8.10
2018-09-13T05:06:44.243Z,8.77
2018-09-13T05:09:14.574Z,8.90
2018-09-13T05:11:44.068Z,9.50
2018-09-13T05:14:13.282Z,8.70
2018-09-13T05:16:42.051Z,10.47
2018-09-13T05:19:10.777Z,8.80
2018-09-13T05:21:39.714Z,9.73
2018-09-13T05:24:08.617Z,9.60
2018-09-13T05:26:37.373Z,8.90
2018-09-13T05:29:06.207Z,8.50
2018-09-13T05:31:34.943Z,8.53
2018-09-13T05:34:03.671Z,9.57
2018-09-13T05:36:32.411Z,8.17
2018-09-13T05:39:01.238Z,10.87
2018-09-13T05:41:33.026Z,9.40
2018-09-13T05:44:01.738Z,10.13
2018-09-13T05:46:30.681Z,9.43
2018-09-13T05:48:59.766Z,11.63
2018-09-13T05:51:28.481Z,9.93
2018-09-13T05:53:57.252Z,10.57
2018-09-13T05:56:26.024Z,11.40
2018-09-13T05:58:55.253Z,9.30
2018-09-13T06:01:23.973Z,10.20
2018-09-13T06:03:52.699Z,11.30
2018-09-13T06:06:21.435Z,10.47
2018-09-13T06:08:50.698Z,11.97
2018-09-13T06:11:19.605Z,11.57
2018-09-13T06:13:48.493Z,10.40
2018-09-13T06:16:17.210Z,10.90
2018-09-13T06:18:45.915Z,8.17
2018-09-13T06:21:14.925Z,10.40
2018-09-13T06:23:43.627Z,9.47
2018-09-13T06:26:12.426Z,9.70
2018-09-13T06:28:41.333Z,11.50
2018-09-13T06:31:10.163Z,10.73
2018-09-13T06:33:38.896Z,9.57
2018-09-13T06:36:08.045Z,9.80
2018-09-13T06:38:36.741Z,11.20
2018-09-13T06:41:05.726Z,8.87
2018-09-13T06:43:34.459Z,9.00
2018-09-13T06:46:03.129Z,10.13
2018-09-13T06:48:31.874Z,10.57
2018-09-13T06:51:00.622Z,10.97
2018-09-13T06:53:29.418Z,10.13
2018-09-13T06:55:58.106Z,10.60
2018-09-13T06:58:26.764Z,10.97
2018-09-13T07:00:55.592Z,10.40
2018-09-13T07:03:24.365Z,11.30
2018-09-13T07:05:53.110Z,10.03
2018-09-13T07:08:21.847Z,10.07
2018-09-13T07:10:50.645Z,11.23
2018-09-13T07:13:19.624Z,11.13
2018-09-13T07:15:48.531Z,11.77
2018-09-13T07:18:17.293Z,11.47
2018-09-13T07:20:45.970Z,12.23
2018-09-13T07:23:14.608Z,12.73
2018-09-13T07:25:43.408Z,13.30
2018-09-13T07:28:12.122Z,12.10
2018-09-13T07:30:40.777Z,14.23
2018-09-13T07:33:09.780Z,14.67
2018-09-13T07:35:38.472Z,13.27
2018-09-13T07:38:07.427Z,10.80
2018-09-13T07:40:36.185Z,12.37
2018-09-13T07:43:05.008Z,10.93
2018-09-13T07:45:33.737Z,13.00
2018-09-13T07:48:02.413Z,12.73
2018-09-13T07:50:31.290Z,13.70
2018-09-13T07:53:00.098Z,12.87
2018-09-13T07:55:28.812Z,12.27
2018-09-13T07:57:57.774Z,12.60
2018-09-13T08:00:26.498Z,11.47
2018-09-13T08:02:55.210Z,11.90
2018-09-13T08:05:23.973Z,13.47
2018-09-13T08:07:52.795Z,11.67
2018-09-13T08:10:21.526Z,14.07
2018-09-13T08:12:50.229Z,12.10
2018-09-13T08:15:19.178Z,12.57
2018-09-13T08:17:47.926Z,12.70
2018-09-13T08:20:16.685Z,10.83
2018-09-13T08:22:45.361Z,10.77
2018-09-13T08:25:14.119Z,11.63
2018-09-13T08:27:43.000Z,13.33
2018-09-13T08:30:11.793Z,12.97
2018-09-13T08:32:40.490Z,12.73
2018-09-13T08:35:09.336Z,13.10
2018-09-13T08:37:38.083Z,11.73
2018-09-13T08:40:06.893Z,12.70
2018-09-13T08:42:35.565Z,12.33
2018-09-13T08:45:04.358Z,12.53
2018-09-13T08:47:33.200Z,12.87
2018-09-13T08:50:01.773Z,12.13
2018-09-13T08:52:30.487Z,10.50
2018-09-13T08:54:59.196Z,11.60
2018-09-13T08:57:27.966Z,13.00
2018-09-13T08:59:56.726Z,15.30
2018-09-13T09:02:25.402Z,12.70
2018-09-13T09:04:54.092Z,13.67
2018-09-13T09:07:22.792Z,14.03
2018-09-13T09:09:51.466Z,14.03
2018-09-13T09:12:20.195Z,15.50
2018-09-13T09:14:49.201Z,14.40
2018-09-13T09:17:18.090Z,16.10
2018-09-13T09:19:46.781Z,13.70
2018-09-13T09:22:15.527Z,14.80
2018-09-13T09:24:44.220Z,15.47
2018-09-13T09:27:13.025Z,16.50
2018-09-13T09:29:42.201Z,14.73
2018-09-13T09:32:10.904Z,15.20
2018-09-13T09:34:39.608Z,13.80
2018-09-13T09:37:08.424Z,19.37
2018-09-13T09:39:37.128Z,17.53
2018-09-13T09:42:05.822Z,16.90
2018-09-13T09:44:34.514Z,17.53
2018-09-13T09:47:03.214Z,18.53
2018-09-13T09:49:31.882Z,15.93
2018-09-13T09:52:00.789Z,14.67
2018-09-13T09:54:29.664Z,14.30
2018-09-13T09:56:58.894Z,14.80
2018-09-13T09:59:27.901Z,15.37
2018-09-13T10:02:01.863Z,16.10
2018-09-13T10:04:30.547Z,15.20
2018-09-13T10:06:59.425Z,15.63
2018-09-13T10:09:28.120Z,16.20
2018-09-13T10:11:56.886Z,14.43
2018-09-13T10:14:25.599Z,15.40
2018-09-13T10:16:59.447Z,14.00
2018-09-13T10:19:33.519Z,15.13
2018-09-13T10:22:07.382Z,12.63
2018-09-13T10:24:41.409Z,13.53
2018-09-13T10:27:15.398Z,14.57
2018-09-13T10:29:49.493Z,14.97
2018-09-13T10:32:23.350Z,13.40
2018-09-13T10:34:57.287Z,12.77
2018-09-13T10:37:31.394Z,11.77
2018-09-13T10:40:05.381Z,12.07
2018-09-13T10:42:39.341Z,11.63
2018-09-13T10:45:13.486Z,12.87
2018-09-13T10:47:56.482Z,11.37
2018-09-13T10:50:35.510Z,12.30
2018-09-13T10:53:39.210Z,10.87
2018-09-13T10:56:08.565Z,12.47
2018-09-13T10:58:37.293Z,14.57
2018-09-13T11:01:06.357Z,13.23
2018-09-13T11:03:35.108Z,14.57
2018-09-13T11:06:03.889Z,13.80
2018-09-13T11:08:32.663Z,13.37
2018-09-13T11:11:01.589Z,12.03
2018-09-13T11:13:38.232Z,10.90
2018-09-13T11:16:06.917Z,10.60
2018-09-13T11:18:35.780Z,11.70
2018-09-13T11:21:04.478Z,11.63
2018-09-13T11:23:33.125Z,10.93
2018-09-13T11:26:01.837Z,12.10
2018-09-13T11:28:31.143Z,11.33
2018-09-13T11:31:04.399Z,12.60
2018-09-13T11:33:34.549Z,11.80
2018-09-13T11:36:03.621Z,14.30
2018-09-13T11:38:32.472Z,12.90
2018-09-13T11:41:01.336Z,12.30
2018-09-13T11:43:30.182Z,10.13
2018-09-13T11:45:58.973Z,11.20
2018-09-13T11:48:27.970Z,11.30
2018-09-13T11:50:56.770Z,10.60
2018-09-13T11:53:26.021Z,11.13
2018-09-13T11:55:54.725Z,10.87
2018-09-13T11:58:23.813Z,10.67
2018-09-13T12:00:53.067Z,9.80
2018-09-13T12:03:21.821Z,10.37
2018-09-13T12:05:51.063Z,11.47
2018-09-13T12:08:20.291Z,10.43
2018-09-13T12:10:48.977Z,13.57
2018-09-13T12:13:17.745Z,12.00
2018-09-13T12:15:46.485Z,12.23
2018-09-13T12:18:15.199Z,12.40
2018-09-13T12:20:44.412Z,11.47
2018-09-13T12:23:13.528Z,10.97
2018-09-13T12:25:43.046Z,11.37
2018-09-13T12:28:11.730Z,12.33
2018-09-13T12:30:40.727Z,12.80
2018-09-13T12:33:09.454Z,12.60
2018-09-13T12:35:38.370Z,14.00
2018-09-13T12:38:07.820Z,10.97
2018-09-13T12:40:36.787Z,14.40
2018-09-13T12:43:05.554Z,11.47
2018-09-13T12:45:34.528Z,10.70
2018-09-13T12:48:03.333Z,13.00
2018-09-13T12:50:32.052Z,13.00
2018-09-13T12:53:00.859Z,12.93
2018-09-13T12:55:33.831Z,10.20
2018-09-13T12:58:02.748Z,12.63
2018-09-13T13:00:31.678Z,13.90
2018-09-13T13:03:00.314Z,14.00
2018-09-13T13:05:28.978Z,12.40
2018-09-13T13:07:58.033Z,14.23
2018-09-13T13:10:27.352Z,10.33
2018-09-13T13:12:56.036Z,13.93
2018-09-13T13:15:24.758Z,12.47
2018-09-13T13:17:53.490Z,11.50
2018-09-13T13:20:22.404Z,13.30
2018-09-13T13:22:51.273Z,13.30
2018-09-13T13:25:20.257Z,14.00
2018-09-13T13:27:49.106Z,13.90
2018-09-13T13:30:18.055Z,13.13
2018-09-13T13:32:46.773Z,14.60
2018-09-13T13:35:15.659Z,13.97
2018-09-13T13:37:44.383Z,14.40
2018-09-13T13:40:13.196Z,12.70
2018-09-13T13:42:42.002Z,12.33
2018-09-13T13:45:10.882Z,12.83
2018-09-13T13:47:39.724Z,10.90
2018-09-13T13:50:08.664Z,12.27
2018-09-13T13:52:37.463Z,12.07
2018-09-13T13:55:06.325Z,13.33
2018-09-13T13:57:35.042Z,11.60
2018-09-13T14:00:03.887Z,13.77
2018-09-13T14:02:32.626Z,11.87
2018-09-13T14:05:01.414Z,11.70
2018-09-13T14:07:30.387Z,12.07
2018-09-13T14:09:59.145Z,12.40
2018-09-13T14:12:27.881Z,10.93
2018-09-13T14:14:56.776Z,12.20
2018-09-13T14:17:25.564Z,11.53
2018-09-13T14:19:54.223Z,11.60
2018-09-13T14:22:22.977Z,12.03
2018-09-13T14:24:51.671Z,10.77
2018-09-13T14:27:20.341Z,11.70
2018-09-13T14:29:49.136Z,10.87
2018-09-13T14:32:17.801Z,11.17
2018-09-13T14:34:46.517Z,11.10
2018-09-13T14:37:15.247Z,12.20
2018-09-13T14:39:44.060Z,12.27
2018-09-13T14:42:13.009Z,11.63
2018-09-13T14:44:41.666Z,11.63
2018-09-13T14:47:10.524Z,9.90
2018-09-13T14:49:39.186Z,10.43
2018-09-13T14:52:08.193Z,10.50
2018-09-13T14:54:36.871Z,11.47
2018-09-13T14:57:05.609Z,12.87
2018-09-13T14:59:34.267Z,8.83
2018-09-13T15:02:03.019Z,10.63
2018-09-13T15:04:32.391Z,10.33
2018-09-13T15:07:01.393Z,8.57
2018-09-13T15:09:30.340Z,10.60
2018-09-13T15:11:59.058Z,10.30
2018-09-13T15:14:29.310Z,9.70
2018-09-13T15:17:00.045Z,10.80
2018-09-13T15:19:29.877Z,11.50
2018-09-13T15:21:58.554Z,12.53
2018-09-13T15:24:27.455Z,10.80
2018-09-13T15:26:56.206Z,9.23
2018-09-13T15:29:25.186Z,9.33
2018-09-13T15:31:54.041Z,9.00
2018-09-13T15:34:22.751Z,7.17
2018-09-13T15:36:51.409Z,8.60
2018-09-13T15:39:20.209Z,8.60
2018-09-13T15:41:48.957Z,6.73
2018-09-13T15:44:17.865Z,8.13
2018-09-13T15:46:46.628Z,7.53
2018-09-13T15:49:15.317Z,8.83
2018-09-13T15:51:44.085Z,7.70
2018-09-13T15:54:12.724Z,9.17
2018-09-13T15:56:41.489Z,7.40
2018-09-13T15:59:10.226Z,7.57
2018-09-13T16:01:39.221Z,8.30
2018-09-13T16:04:08.006Z,7.67
2018-09-13T16:06:36.743Z,7.23
2018-09-13T16:09:08.051Z,6.70
2018-09-13T16:11:37.131Z,7.03
2018-09-13T16:14:05.913Z,6.80
2018-09-13T16:16:35.131Z,6.87
2018-09-13T16:19:03.981Z,7.50
2018-09-13T16:21:32.793Z,6.77
2018-09-13T16:24:01.470Z,9.03
2018-09-13T16:26:30.267Z,7.43
2018-09-13T16:28:59.277Z,5.50
2018-09-13T16:31:27.994Z,6.93
2018-09-13T16:33:56.790Z,7.27
2018-09-13T16:36:30.740Z,5.50
2018-09-13T16:39:05.351Z,6.00
2018-09-13T16:41:40.881Z,6.13
2018-09-13T16:44:14.221Z,7.10
2018-09-13T16:46:48.053Z,5.73
2018-09-13T16:49:16.878Z,6.30
2018-09-13T16:51:45.625Z,6.17
2018-09-13T16:54:14.413Z,5.60
2018-09-13T16:56:43.294Z,6.87
2018-09-13T16:59:11.990Z,6.20
2018-09-13T17:01:40.899Z,7.10
2018-09-13T17:04:09.601Z,5.80
2018-09-13T17:06:38.505Z,6.47
2018-09-13T17:09:09.643Z,6.57
2018-09-13T17:11:38.362Z,6.30
2018-09-13T17:14:07.170Z,6.50
2018-09-13T17:16:35.874Z,5.93
2018-09-13T17:19:04.675Z,6.97
2018-09-13T17:21:33.401Z,6.80
2018-09-13T17:24:02.130Z,5.67
2018-09-13T17:26:31.531Z,6.67
2018-09-13T17:29:00.817Z,6.77
2018-09-13T17:31:29.685Z,6.87
2018-09-13T17:33:59.164Z,7.67
2018-09-13T17:36:28.422Z,7.20
2018-09-13T17:38:57.066Z,7.40
2018-09-13T17:41:25.787Z,7.30
2018-09-13T17:43:54.749Z,6.43
2018-09-13T17:46:23.687Z,7.03
2018-09-13T17:48:52.362Z,6.33
2018-09-13T17:51:21.037Z,6.63
2018-09-13T17:53:49.955Z,7.00
2018-09-13T17:56:18.818Z,7.60
2018-09-13T17:58:47.854Z,6.70
2018-09-13T18:01:16.533Z,7.00
2018-09-13T18:03:45.544Z,8.60
2018-09-13T18:06:14.314Z,6.07
2018-09-13T18:08:43.070Z,7.23
2018-09-13T18:11:12.057Z,6.60
2018-09-13T18:13:41.093Z,7.23
2018-09-13T18:16:09.857Z,6.90
2018-09-13T18:18:38.883Z,7.53
2018-09-13T18:21:07.842Z,7.97
2018-09-13T18:23:36.599Z,7.17
2018-09-13T18:26:05.306Z,7.60
2018-09-13T18:28:34.230Z,7.47
2018-09-13T18:31:03.723Z,7.20
2018-09-13T18:33:32.396Z,7.20
2018-09-13T18:36:01.218Z,7.10
2018-09-13T18:38:29.930Z,6.77
2018-09-13T18:40:58.890Z,6.40
2018-09-13T18:43:27.619Z,6.60
2018-09-13T18:45:56.406Z,7.30
2018-09-13T18:48:25.115Z,6.30
2018-09-13T18:50:53.827Z,6.97
2018-09-13T18:53:22.514Z,7.87
2018-09-13T18:55:51.262Z,6.23
2018-09-13T18:58:20.045Z,6.83
2018-09-13T19:00:49.174Z,6.57
2018-09-13T19:03:17.861Z,6.53
2018-09-13T19:05:46.690Z,7.27
2018-09-13T19:08:15.584Z,6.80
2018-09-13T19:10:44.265Z,6.50
2018-09-13T19:13:13.055Z,6.60
2018-09-13T19:15:42.100Z,6.90
2018-09-13T19:18:10.812Z,7.10
2018-09-13T19:20:39.493Z,5.90
2018-09-13T19:23:08.205Z,5.97
2018-09-13T19:25:36.950Z,6.67
2018-09-13T19:28:05.885Z,7.40
2018-09-13T19:30:34.535Z,7.20
2018-09-13T19:33:03.303Z,7.07
2018-09-13T19:35:32.549Z,6.10
2018-09-13T19:38:01.210Z,6.70
2018-09-13T19:40:29.962Z,6.20
2018-09-13T19:42:58.699Z,6.80
2018-09-13T19:45:27.366Z,6.70
2018-09-13T19:47:56.196Z,5.93
2018-09-13T19:50:24.977Z,5.93
2018-09-13T19:52:53.799Z,6.40
2018-09-13T19:55:22.546Z,5.50
2018-09-13T19:57:51.227Z,5.63
2018-09-13T20:00:19.931Z,5.63
2018-09-13T20:02:48.688Z,6.00
2018-09-13T20:05:17.539Z,5.10
2018-09-13T20:07:46.336Z,5.90
2018-09-13T20:10:15.090Z,5.80
2018-09-13T20:12:43.765Z,6.57
2018-09-13T20:15:12.534Z,7.10
2018-09-13T20:17:41.367Z,6.17
2018-09-13T20:20:10.037Z,6.40
2018-09-13T20:22:38.791Z,5.80
2018-09-13T20:25:07.903Z,6.60
2018-09-13T20:27:36.928Z,6.80
2018-09-13T20:30:07.063Z,7.77
2018-09-13T20:32:35.705Z,6.80
2018-09-13T20:35:04.506Z,8.30
2018-09-13T20:37:33.249Z,6.67
2018-09-13T20:40:02.083Z,7.27
2018-09-13T20:42:31.291Z,7.57
2018-09-13T20:44:59.965Z,7.03
2018-09-13T20:47:28.766Z,8.47
2018-09-13T20:49:57.552Z,6.97
2018-09-13T20:52:26.301Z,8.47
2018-09-13T20:54:55.018Z,8.50
2018-09-13T20:57:23.917Z,9.07
2018-09-13T20:59:52.913Z,7.73
2018-09-13T21:02:21.654Z,6.97
2018-09-13T21:04:50.366Z,8.60
2018-09-13T21:07:19.230Z,7.90
2018-09-13T21:09:47.930Z,7.80
2018-09-13T21:12:16.610Z,8.90
2018-09-13T21:14:45.319Z,8.47
2018-09-13T21:17:14.018Z,9.27
2018-09-13T21:19:43.039Z,10.27
2018-09-13T21:22:12.193Z,8.07
2018-09-13T21:24:40.838Z,8.03
2018-09-13T21:27:09.662Z,9.30
2018-09-13T21:29:38.372Z,10.07
2018-09-13T21:32:07.082Z,9.80
2018-09-13T21:34:35.749Z,9.10
2018-09-13T21:37:04.432Z,9.10
2018-09-13T21:39:33.141Z,8.40
2018-09-13T21:42:01.862Z,9.70
2018-09-13T21:44:30.800Z,10.20
2018-09-13T21:46:59.473Z,9.70
2018-09-13T21:49:28.161Z,10.83
2018-09-13T21:51:56.883Z,10.23
2018-09-13T21:54:25.526Z,9.63
2018-09-13T21:56:54.252Z,10.77
2018-09-13T21:59:22.893Z,9.77
2018-09-13T22:01:51.618Z,11.07
2018-09-13T22:04:20.306Z,9.43
2018-09-13T22:06:49.097Z,10.97
2018-09-13T22:09:17.906Z,10.70
2018-09-13T22:11:46.668Z,10.27
2018-09-13T22:14:15.341Z,10.93
2018-09-13T22:16:44.062Z,11.50
2018-09-13T22:19:12.911Z,9.70
2018-09-13T22:21:41.855Z,10.77
2018-09-13T22:24:10.513Z,9.10
2018-09-13T22:26:39.192Z,10.67
2018-09-13T22:29:08.064Z,10.30
2018-09-13T22:31:36.682Z,11.50
2018-09-13T22:34:07.511Z,11.73
2018-09-13T22:36:36.934Z,11.60
2018-09-13T22:39:10.110Z,12.30
2018-09-13T22:41:39.302Z,11.90
2018-09-13T22:44:07.969Z,10.87
2018-09-13T22:46:36.631Z,12.90
2018-09-13T22:49:05.413Z,11.87
2018-09-13T22:51:34.180Z,12.07
2018-09-13T22:54:03.301Z,12.67
2018-09-13T22:56:32.249Z,12.90
2018-09-13T22:59:01.081Z,12.43
2018-09-13T23:01:30.068Z,13.40
2018-09-13T23:03:59.051Z,11.87
2018-09-13T23:06:27.833Z,11.57
2018-09-13T23:08:56.961Z,11.53
2018-09-13T23:11:25.729Z,11.50
2018-09-13T23:13:54.622Z,13.30
2018-09-13T23:16:23.433Z,13.50
2018-09-13T23:18:52.305Z,11.70
2018-09-13T23:21:21.143Z,13.83
2018-09-13T23:23:49.852Z,14.43
2018-09-13T23:26:18.485Z,13.53
2018-09-13T23:28:47.557Z,13.83
2018-09-13T23:31:16.298Z,13.37
2018-09-13T23:33:45.082Z,13.30
2018-09-13T23:36:13.767Z,11.63
2018-09-13T23:38:42.466Z,13.10
2018-09-13T23:41:11.406Z,13.60
2018-09-13T23:43:40.481Z,15.40
2018-09-13T23:46:09.172Z,16.23
2018-09-13T23:48:38.079Z,16.20
2018-09-13T23:51:06.761Z,15.50
2018-09-13T23:53:35.652Z,17.97
2018-09-13T23:56:04.823Z,16.00
2018-09-13T23:58:33.651Z,18.73
